sensor_id;sensor_type;location;lat;lon;timestamp;pressure;altitude;pressure_sealevel;temperature;humidity
3544;BME280;1786;52.870;9.578;2024-02-23T00:00:41;97213.03;;;13.60;57.42
3544;BME280;1786;52.870;9.578;2024-02-23T00:03:07;97231.53;;;13.40;57.04
3544;BME280;1786;52.870;9.578;2024-02-23T00:05:34;97227.44;;;12.96;56.97
3544;BME280;1786;52.870;9.578;2024-02-23T00:08:01;97238.66;;;13.33;56.84
3544;BME280;1786;52.870;9.578;2024-02-23T00:10:28;97227.84;;;13.00;57.04
3544;BME280;1786;52.870;9.578;2024-02-23T00:12:54;97233.25;;;13.20;57.06
3544;BME280;1786;52.870;9.578;2024-02-23T00:15:21;97240.50;;;13.05;56.47
3544;BME280;1786;52.870;9.578;2024-02-23T00:17:50;97245.31;;;12.88;56.54
3544;BME280;1786;52.870;9.578;2024-02-23T00:20:16;97259.16;;;13.18;56.05
3544;BME280;1786;52.870;9.578;2024-02-23T00:22:43;97260.88;;;12.69;56.47
3544;BME280;1786;52.870;9.578;2024-02-23T00:25:10;97274.66;;;13.21;55.02
3544;BME280;1786;52.870;9.578;2024-02-23T00:27:36;97286.25;;;13.13;55.98
3544;BME280;1786;52.870;9.578;2024-02-23T00:30:06;97311.66;;;12.73;55.56
3544;BME280;1786;52.870;9.578;2024-02-23T00:32:33;97282.19;;;13.17;55.53
3544;BME280;1786;52.870;9.578;2024-02-23T00:34:59;97281.69;;;13.01;55.26
3544;BME280;1786;52.870;9.578;2024-02-23T00:37:26;97288.94;;;12.85;54.79
3544;BME280;1786;52.870;9.578;2024-02-23T00:39:53;97287.16;;;12.99;54.66
3544;BME280;1786;52.870;9.578;2024-02-23T00:42:19;97270.91;;;13.09;54.68
3544;BME280;1786;52.870;9.578;2024-02-23T00:44:47;97278.41;;;12.98;55.04
3544;BME280;1786;52.870;9.578;2024-02-23T00:47:14;97303.22;;;13.54;54.34
3544;BME280;1786;52.870;9.578;2024-02-23T00:49:40;97300.31;;;13.97;53.67
3544;BME280;1786;52.870;9.578;2024-02-23T00:52:07;97320.81;;;13.68;54.83
3544;BME280;1786;52.870;9.578;2024-02-23T00:54:33;97287.63;;;13.37;55.12
3544;BME280;1786;52.870;9.578;2024-02-23T00:57:00;97293.47;;;13.26;55.95
3544;BME280;1786;52.870;9.578;2024-02-23T00:59:27;97296.69;;;13.56;55.76
3544;BME280;1786;52.870;9.578;2024-02-23T01:01:54;97299.84;;;13.04;56.49
3544;BME280;1786;52.870;9.578;2024-02-23T01:04:21;97333.91;;;13.07;56.73
3544;BME280;1786;52.870;9.578;2024-02-23T01:06:48;97321.78;;;12.91;56.75
3544;BME280;1786;52.870;9.578;2024-02-23T01:09:15;97343.06;;;12.76;57.77
3544;BME280;1786;52.870;9.578;2024-02-23T01:11:43;97378.22;;;13.13;57.17
3544;BME280;1786;52.870;9.578;2024-02-23T01:14:10;97416.16;;;13.20;61.32
3544;BME280;1786;52.870;9.578;2024-02-23T01:16:36;97403.09;;;12.47;64.87
3544;BME280;1786;52.870;9.578;2024-02-23T01:19:03;97413.00;;;12.60;64.94
3544;BME280;1786;52.870;9.578;2024-02-23T01:21:30;97424.53;;;12.16;66.13
3544;BME280;1786;52.870;9.578;2024-02-23T01:23:56;97463.16;;;11.43;68.84
3544;BME280;1786;52.870;9.578;2024-02-23T01:26:23;97461.09;;;11.53;68.48
3544;BME280;1786;52.870;9.578;2024-02-23T01:28:50;97475.78;;;11.70;68.41
3544;BME280;1786;52.870;9.578;2024-02-23T01:31:17;97484.72;;;11.55;68.26
3544;BME280;1786;52.870;9.578;2024-02-23T01:33:43;97475.81;;;11.33;68.67
3544;BME280;1786;52.870;9.578;2024-02-23T01:36:10;97500.53;;;11.40;68.97
3544;BME280;1786;52.870;9.578;2024-02-23T01:38:38;97505.06;;;11.84;68.46
3544;BME280;1786;52.870;9.578;2024-02-23T01:41:05;97511.31;;;11.53;68.53
3544;BME280;1786;52.870;9.578;2024-02-23T01:43:33;97525.38;;;11.31;68.87
3544;BME280;1786;52.870;9.578;2024-02-23T01:45:59;97531.19;;;11.26;69.17
3544;BME280;1786;52.870;9.578;2024-02-23T01:48:26;97549.47;;;11.13;69.61
3544;BME280;1786;52.870;9.578;2024-02-23T01:50:53;97551.16;;;11.29;69.07
3544;BME280;1786;52.870;9.578;2024-02-23T01:53:20;97568.06;;;11.65;68.90
3544;BME280;1786;52.870;9.578;2024-02-23T01:55:48;97579.25;;;11.30;69.38
3544;BME280;1786;52.870;9.578;2024-02-23T01:58:15;97569.03;;;11.26;69.46
3544;BME280;1786;52.870;9.578;2024-02-23T02:00:42;97593.78;;;11.57;68.49
3544;BME280;1786;52.870;9.578;2024-02-23T02:03:08;97611.13;;;11.05;70.07
3544;BME280;1786;52.870;9.578;2024-02-23T02:05:38;97614.59;;;11.29;69.90
3544;BME280;1786;52.870;9.578;2024-02-23T02:08:05;97632.69;;;11.17;69.98
3544;BME280;1786;52.870;9.578;2024-02-23T02:10:32;97643.06;;;10.87;70.05
3544;BME280;1786;52.870;9.578;2024-02-23T02:13:03;97644.09;;;11.17;69.79
3544;BME280;1786;52.870;9.578;2024-02-23T02:15:30;97650.91;;;11.03;69.70
3544;BME280;1786;52.870;9.578;2024-02-23T02:17:58;97652.19;;;10.76;70.06
3544;BME280;1786;52.870;9.578;2024-02-23T02:20:25;97664.81;;;10.97;68.87
3544;BME280;1786;52.870;9.578;2024-02-23T02:22:52;97684.50;;;11.26;68.74
3544;BME280;1786;52.870;9.578;2024-02-23T02:25:19;97686.13;;;10.96;69.09
3544;BME280;1786;52.870;9.578;2024-02-23T02:27:46;97702.44;;;10.27;70.61
3544;BME280;1786;52.870;9.578;2024-02-23T02:30:13;97702.13;;;10.30;70.42
3544;BME280;1786;52.870;9.578;2024-02-23T02:32:39;97716.13;;;10.64;70.20
3544;BME280;1786;52.870;9.578;2024-02-23T02:35:07;97724.28;;;10.85;69.48
3544;BME280;1786;52.870;9.578;2024-02-23T02:37:34;97720.00;;;10.76;69.73
3544;BME280;1786;52.870;9.578;2024-02-23T02:40:00;97742.31;;;10.81;69.95
3544;BME280;1786;52.870;9.578;2024-02-23T02:42:27;97753.38;;;10.77;69.38
3544;BME280;1786;52.870;9.578;2024-02-23T02:44:55;97740.66;;;10.80;68.88
3544;BME280;1786;52.870;9.578;2024-02-23T02:47:22;97754.88;;;10.55;69.87
3544;BME280;1786;52.870;9.578;2024-02-23T02:49:49;97751.75;;;10.59;69.94
3544;BME280;1786;52.870;9.578;2024-02-23T02:52:15;97767.75;;;10.17;70.19
3544;BME280;1786;52.870;9.578;2024-02-23T02:54:42;97768.75;;;10.16;70.44
3544;BME280;1786;52.870;9.578;2024-02-23T02:57:08;97794.16;;;10.50;69.63
3544;BME280;1786;52.870;9.578;2024-02-23T02:59:35;97786.59;;;10.38;69.77
3544;BME280;1786;52.870;9.578;2024-02-23T03:02:03;97785.91;;;10.61;68.69
3544;BME280;1786;52.870;9.578;2024-02-23T03:04:29;97785.88;;;10.12;69.87
3544;BME280;1786;52.870;9.578;2024-02-23T03:06:56;97796.09;;;10.15;69.42
3544;BME280;1786;52.870;9.578;2024-02-23T03:09:23;97785.34;;;9.92;69.84
3544;BME280;1786;52.870;9.578;2024-02-23T03:11:49;97800.28;;;10.34;69.10
3544;BME280;1786;52.870;9.578;2024-02-23T03:14:16;97807.94;;;9.86;70.18
3544;BME280;1786;52.870;9.578;2024-02-23T03:16:45;97816.75;;;10.60;67.85
3544;BME280;1786;52.870;9.578;2024-02-23T03:19:14;97828.22;;;10.02;69.22
3544;BME280;1786;52.870;9.578;2024-02-23T03:21:41;97829.03;;;10.03;68.51
3544;BME280;1786;52.870;9.578;2024-02-23T03:24:08;97828.41;;;10.09;68.27
3544;BME280;1786;52.870;9.578;2024-02-23T03:26:35;97849.53;;;10.25;67.50
3544;BME280;1786;52.870;9.578;2024-02-23T03:29:02;97851.75;;;10.46;67.12
3544;BME280;1786;52.870;9.578;2024-02-23T03:31:28;97857.78;;;10.14;67.71
3544;BME280;1786;52.870;9.578;2024-02-23T03:33:55;97869.69;;;10.26;67.75
3544;BME280;1786;52.870;9.578;2024-02-23T03:36:22;97873.88;;;10.03;68.46
3544;BME280;1786;52.870;9.578;2024-02-23T03:38:48;97874.56;;;10.05;68.87
3544;BME280;1786;52.870;9.578;2024-02-23T03:41:15;97865.50;;;10.07;68.29
3544;BME280;1786;52.870;9.578;2024-02-23T03:43:42;97884.97;;;10.06;68.78
3544;BME280;1786;52.870;9.578;2024-02-23T03:46:08;97892.34;;;10.61;67.22
3544;BME280;1786;52.870;9.578;2024-02-23T03:48:35;97893.16;;;10.54;67.62
3544;BME280;1786;52.870;9.578;2024-02-23T03:51:04;97888.03;;;10.36;67.87
3544;BME280;1786;52.870;9.578;2024-02-23T03:53:31;97904.41;;;10.80;66.94
3544;BME280;1786;52.870;9.578;2024-02-23T03:55:58;97900.28;;;10.78;66.35
3544;BME280;1786;52.870;9.578;2024-02-23T03:58:24;97907.69;;;10.58;66.89
3544;BME280;1786;52.870;9.578;2024-02-23T04:00:51;97904.59;;;10.12;66.94
3544;BME280;1786;52.870;9.578;2024-02-23T04:03:18;97910.44;;;10.32;67.01
3544;BME280;1786;52.870;9.578;2024-02-23T04:05:45;97915.44;;;10.68;65.64
3544;BME280;1786;52.870;9.578;2024-02-23T04:08:12;97917.47;;;10.15;66.13
3544;BME280;1786;52.870;9.578;2024-02-23T04:10:38;97920.72;;;10.01;66.35
3544;BME280;1786;52.870;9.578;2024-02-23T04:13:05;97932.72;;;10.29;66.19
3544;BME280;1786;52.870;9.578;2024-02-23T04:15:32;97935.88;;;10.41;65.67
3544;BME280;1786;52.870;9.578;2024-02-23T04:17:59;97929.31;;;10.78;64.65
3544;BME280;1786;52.870;9.578;2024-02-23T04:20:26;97939.06;;;10.61;64.42
3544;BME280;1786;52.870;9.578;2024-02-23T04:22:52;97948.63;;;10.62;64.76
3544;BME280;1786;52.870;9.578;2024-02-23T04:25:19;97960.22;;;11.10;63.67
3544;BME280;1786;52.870;9.578;2024-02-23T04:27:46;97959.66;;;10.57;65.02
3544;BME280;1786;52.870;9.578;2024-02-23T04:30:13;97950.94;;;11.06;63.86
3544;BME280;1786;52.870;9.578;2024-02-23T04:32:40;97959.53;;;11.33;62.54
3544;BME280;1786;52.870;9.578;2024-02-23T04:35:07;97960.53;;;11.40;62.47
3544;BME280;1786;52.870;9.578;2024-02-23T04:37:34;97968.31;;;10.92;63.53
3544;BME280;1786;52.870;9.578;2024-02-23T04:40:03;97972.28;;;11.13;62.81
3544;BME280;1786;52.870;9.578;2024-02-23T04:42:32;97971.28;;;11.05;62.47
3544;BME280;1786;52.870;9.578;2024-02-23T04:44:58;97979.03;;;11.48;62.46
3544;BME280;1786;52.870;9.578;2024-02-23T04:47:25;97977.38;;;11.31;63.11
3544;BME280;1786;52.870;9.578;2024-02-23T04:49:52;97988.94;;;11.46;62.61
3544;BME280;1786;52.870;9.578;2024-02-23T04:52:18;97977.03;;;11.34;62.94
3544;BME280;1786;52.870;9.578;2024-02-23T04:54:45;97985.59;;;11.68;62.62
3544;BME280;1786;52.870;9.578;2024-02-23T04:57:12;97989.38;;;11.74;62.29
3544;BME280;1786;52.870;9.578;2024-02-23T04:59:39;98002.03;;;12.11;61.41
3544;BME280;1786;52.870;9.578;2024-02-23T05:02:06;98011.69;;;12.44;60.45
3544;BME280;1786;52.870;9.578;2024-02-23T05:04:32;98018.88;;;12.27;60.25
3544;BME280;1786;52.870;9.578;2024-02-23T05:06:59;98013.44;;;12.20;60.12
3544;BME280;1786;52.870;9.578;2024-02-23T05:09:26;98009.38;;;11.77;60.21
3544;BME280;1786;52.870;9.578;2024-02-23T05:11:53;98004.00;;;11.29;61.69
3544;BME280;1786;52.870;9.578;2024-02-23T05:14:19;98005.13;;;11.18;61.21
3544;BME280;1786;52.870;9.578;2024-02-23T05:16:46;98003.16;;;11.04;61.23
3544;BME280;1786;52.870;9.578;2024-02-23T05:19:13;98012.66;;;10.56;62.22
3544;BME280;1786;52.870;9.578;2024-02-23T05:21:39;98020.31;;;11.08;61.42
3544;BME280;1786;52.870;9.578;2024-02-23T05:24:06;98025.28;;;10.95;61.43
3544;BME280;1786;52.870;9.578;2024-02-23T05:26:33;98026.53;;;10.66;61.82
3544;BME280;1786;52.870;9.578;2024-02-23T05:29:00;98020.41;;;10.23;63.02
3544;BME280;1786;52.870;9.578;2024-02-23T05:31:46;98017.47;;;10.26;62.73
3544;BME280;1786;52.870;9.578;2024-02-23T05:34:14;98028.91;;;11.02;61.48
3544;BME280;1786;52.870;9.578;2024-02-23T05:36:41;98029.72;;;10.94;61.15
3544;BME280;1786;52.870;9.578;2024-02-23T05:39:08;98040.44;;;10.93;60.73
3544;BME280;1786;52.870;9.578;2024-02-23T05:41:36;98038.00;;;10.99;61.05
3544;BME280;1786;52.870;9.578;2024-02-23T05:44:06;98045.38;;;10.29;61.97
3544;BME280;1786;52.870;9.578;2024-02-23T05:46:34;98057.13;;;10.08;61.53
3544;BME280;1786;52.870;9.578;2024-02-23T05:49:02;98056.81;;;10.46;60.96
3544;BME280;1786;52.870;9.578;2024-02-23T05:51:30;98060.78;;;10.50;61.37
3544;BME280;1786;52.870;9.578;2024-02-23T05:53:58;98059.88;;;10.75;60.15
3544;BME280;1786;52.870;9.578;2024-02-23T05:56:24;98076.56;;;10.76;60.76
3544;BME280;1786;52.870;9.578;2024-02-23T05:58:51;98080.34;;;10.73;60.67
3544;BME280;1786;52.870;9.578;2024-02-23T06:01:19;98084.56;;;10.50;60.78
3544;BME280;1786;52.870;9.578;2024-02-23T06:03:45;98091.19;;;10.54;60.92
3544;BME280;1786;52.870;9.578;2024-02-23T06:06:12;98082.22;;;10.81;60.23
3544;BME280;1786;52.870;9.578;2024-02-23T06:08:39;98084.63;;;10.66;59.98
3544;BME280;1786;52.870;9.578;2024-02-23T06:11:06;98094.06;;;10.77;59.53
3544;BME280;1786;52.870;9.578;2024-02-23T06:13:33;98102.00;;;10.77;59.80
3544;BME280;1786;52.870;9.578;2024-02-23T06:16:00;98101.03;;;10.44;60.26
3544;BME280;1786;52.870;9.578;2024-02-23T06:18:27;98115.44;;;10.92;59.92
3544;BME280;1786;52.870;9.578;2024-02-23T06:20:53;98097.78;;;10.58;60.79
3544;BME280;1786;52.870;9.578;2024-02-23T06:23:21;98113.34;;;10.61;60.36
3544;BME280;1786;52.870;9.578;2024-02-23T06:25:48;98118.41;;;10.89;59.77
3544;BME280;1786;52.870;9.578;2024-02-23T06:28:15;98131.97;;;10.59;61.36
3544;BME280;1786;52.870;9.578;2024-02-23T06:30:42;98124.41;;;11.23;59.38
3544;BME280;1786;52.870;9.578;2024-02-23T06:33:08;98122.81;;;10.80;59.59
3544;BME280;1786;52.870;9.578;2024-02-23T06:35:36;98126.97;;;10.91;59.98
3544;BME280;1786;52.870;9.578;2024-02-23T06:38:03;98129.09;;;10.87;60.23
3544;BME280;1786;52.870;9.578;2024-02-23T06:40:29;98133.81;;;11.26;58.77
3544;BME280;1786;52.870;9.578;2024-02-23T06:43:11;98146.56;;;11.31;58.18
3544;BME280;1786;52.870;9.578;2024-02-23T06:45:38;98138.72;;;10.96;59.37
3544;BME280;1786;52.870;9.578;2024-02-23T06:48:05;98144.41;;;10.75;59.85
3544;BME280;1786;52.870;9.578;2024-02-23T06:50:32;98149.19;;;11.14;59.17
3544;BME280;1786;52.870;9.578;2024-02-23T06:52:58;98151.25;;;10.94;59.61
3544;BME280;1786;52.870;9.578;2024-02-23T06:55:25;98150.22;;;11.30;58.58
3544;BME280;1786;52.870;9.578;2024-02-23T06:57:52;98160.22;;;11.93;58.18
3544;BME280;1786;52.870;9.578;2024-02-23T07:00:20;98162.53;;;11.88;57.83
3544;BME280;1786;52.870;9.578;2024-02-23T07:02:47;98165.84;;;11.90;56.95
3544;BME280;1786;52.870;9.578;2024-02-23T07:05:14;98156.75;;;12.01;56.88
3544;BME280;1786;52.870;9.578;2024-02-23T07:07:41;98176.91;;;12.18;56.58
3544;BME280;1786;52.870;9.578;2024-02-23T07:10:08;98178.97;;;12.72;54.93
3544;BME280;1786;52.870;9.578;2024-02-23T07:12:35;98183.84;;;13.39;53.64
3544;BME280;1786;52.870;9.578;2024-02-23T07:15:02;98186.81;;;12.24;55.00
3544;BME280;1786;52.870;9.578;2024-02-23T07:17:29;98179.34;;;12.52;55.53
3544;BME280;1786;52.870;9.578;2024-02-23T07:19:55;98189.13;;;11.70;57.11
3544;BME280;1786;52.870;9.578;2024-02-23T07:22:29;98194.78;;;12.08;56.89
3544;BME280;1786;52.870;9.578;2024-02-23T07:24:56;98194.25;;;12.37;56.33
3544;BME280;1786;52.870;9.578;2024-02-23T07:27:23;98204.16;;;12.68;56.08
3544;BME280;1786;52.870;9.578;2024-02-23T07:29:49;98200.56;;;12.11;56.48
3544;BME280;1786;52.870;9.578;2024-02-23T07:32:16;98197.56;;;12.47;55.77
3544;BME280;1786;52.870;9.578;2024-02-23T07:34:44;98202.66;;;12.73;55.38
3544;BME280;1786;52.870;9.578;2024-02-23T07:37:10;98199.75;;;12.19;56.05
3544;BME280;1786;52.870;9.578;2024-02-23T07:39:37;98199.50;;;12.78;55.92
3544;BME280;1786;52.870;9.578;2024-02-23T07:42:04;98211.50;;;12.97;54.45
3544;BME280;1786;52.870;9.578;2024-02-23T07:44:32;98213.06;;;13.31;54.43
3544;BME280;1786;52.870;9.578;2024-02-23T07:46:59;98224.41;;;14.78;51.91
3544;BME280;1786;52.870;9.578;2024-02-23T07:49:25;98217.34;;;16.23;47.55
3544;BME280;1786;52.870;9.578;2024-02-23T07:51:54;98234.53;;;15.78;48.92
3544;BME280;1786;52.870;9.578;2024-02-23T07:54:21;98238.09;;;15.85;49.13
3544;BME280;1786;52.870;9.578;2024-02-23T07:56:48;98238.94;;;15.92;48.56
3544;BME280;1786;52.870;9.578;2024-02-23T07:59:14;98246.00;;;17.41;46.23
3544;BME280;1786;52.870;9.578;2024-02-23T08:01:41;98249.56;;;18.36;45.06
3544;BME280;1786;52.870;9.578;2024-02-23T08:04:07;98250.00;;;18.33;43.17
3544;BME280;1786;52.870;9.578;2024-02-23T08:06:34;98258.41;;;17.55;44.20
3544;BME280;1786;52.870;9.578;2024-02-23T08:09:02;98253.97;;;15.64;47.89
3544;BME280;1786;52.870;9.578;2024-02-23T08:11:29;98252.66;;;15.08;49.06
3544;BME280;1786;52.870;9.578;2024-02-23T08:13:57;98249.44;;;14.68;50.41
3544;BME280;1786;52.870;9.578;2024-02-23T08:16:24;98241.06;;;14.34;50.89
3544;BME280;1786;52.870;9.578;2024-02-23T08:18:50;98249.25;;;14.09;51.30
3544;BME280;1786;52.870;9.578;2024-02-23T08:21:17;98256.53;;;13.53;52.40
3544;BME280;1786;52.870;9.578;2024-02-23T08:23:45;98264.69;;;13.51;52.46
3544;BME280;1786;52.870;9.578;2024-02-23T08:26:12;98273.00;;;13.79;52.96
3544;BME280;1786;52.870;9.578;2024-02-23T08:28:38;98279.06;;;14.19;52.87
3544;BME280;1786;52.870;9.578;2024-02-23T08:31:05;98276.47;;;13.49;53.24
3544;BME280;1786;52.870;9.578;2024-02-23T08:33:32;98281.09;;;13.55;53.40
3544;BME280;1786;52.870;9.578;2024-02-23T08:35:59;98274.47;;;12.87;54.67
3544;BME280;1786;52.870;9.578;2024-02-23T08:38:25;98270.63;;;12.97;54.07
3544;BME280;1786;52.870;9.578;2024-02-23T08:40:52;98277.59;;;13.07;54.45
3544;BME280;1786;52.870;9.578;2024-02-23T08:43:18;98270.78;;;13.60;53.19
3544;BME280;1786;52.870;9.578;2024-02-23T08:45:46;98282.22;;;13.13;53.23
3544;BME280;1786;52.870;9.578;2024-02-23T08:48:13;98280.44;;;12.89;54.83
3544;BME280;1786;52.870;9.578;2024-02-23T08:50:41;98280.31;;;12.49;54.87
3544;BME280;1786;52.870;9.578;2024-02-23T08:53:08;98302.03;;;13.41;53.69
3544;BME280;1786;52.870;9.578;2024-02-23T08:55:35;98302.25;;;13.24;53.25
3544;BME280;1786;52.870;9.578;2024-02-23T08:58:02;98297.75;;;13.32;53.76
3544;BME280;1786;52.870;9.578;2024-02-23T09:00:29;98304.91;;;13.63;53.47
3544;BME280;1786;52.870;9.578;2024-02-23T09:02:55;98301.22;;;13.25;53.57
3544;BME280;1786;52.870;9.578;2024-02-23T09:05:22;98292.97;;;13.19;52.55
3544;BME280;1786;52.870;9.578;2024-02-23T09:07:49;98298.06;;;13.37;52.67
3544;BME280;1786;52.870;9.578;2024-02-23T09:10:16;98298.13;;;13.60;52.89
3544;BME280;1786;52.870;9.578;2024-02-23T09:12:44;98301.25;;;13.72;52.14
3544;BME280;1786;52.870;9.578;2024-02-23T09:15:11;98304.69;;;13.41;53.15
3544;BME280;1786;52.870;9.578;2024-02-23T09:17:40;98307.59;;;12.99;53.85
3544;BME280;1786;52.870;9.578;2024-02-23T09:20:07;98319.22;;;12.73;53.53
3544;BME280;1786;52.870;9.578;2024-02-23T09:22:34;98328.25;;;13.36;53.40
3544;BME280;1786;52.870;9.578;2024-02-23T09:25:03;98330.22;;;13.42;52.88
3544;BME280;1786;52.870;9.578;2024-02-23T09:27:32;98325.06;;;13.80;51.60
3544;BME280;1786;52.870;9.578;2024-02-23T09:29:58;98333.38;;;13.77;50.87
3544;BME280;1786;52.870;9.578;2024-02-23T09:32:25;98342.03;;;13.32;52.34
3544;BME280;1786;52.870;9.578;2024-02-23T09:34:52;98341.91;;;13.96;52.14
3544;BME280;1786;52.870;9.578;2024-02-23T09:37:18;98348.78;;;14.67;50.82
3544;BME280;1786;52.870;9.578;2024-02-23T09:39:45;98350.63;;;14.67;50.24
3544;BME280;1786;52.870;9.578;2024-02-23T09:42:11;98353.38;;;13.96;50.22
3544;BME280;1786;52.870;9.578;2024-02-23T09:44:39;98353.38;;;14.27;50.62
3544;BME280;1786;52.870;9.578;2024-02-23T09:47:07;98345.03;;;14.31;50.77
3544;BME280;1786;52.870;9.578;2024-02-23T09:49:39;98349.97;;;14.65;50.18
3544;BME280;1786;52.870;9.578;2024-02-23T09:52:07;98358.44;;;14.37;49.87
3544;BME280;1786;52.870;9.578;2024-02-23T09:54:39;98355.53;;;14.93;49.76
3544;BME280;1786;52.870;9.578;2024-02-23T09:57:09;98370.63;;;14.78;50.03
3544;BME280;1786;52.870;9.578;2024-02-23T09:59:37;98372.69;;;14.90;49.55
3544;BME280;1786;52.870;9.578;2024-02-23T10:02:07;98373.16;;;14.48;49.91
3544;BME280;1786;52.870;9.578;2024-02-23T10:04:36;98382.56;;;14.59;50.31
3544;BME280;1786;52.870;9.578;2024-02-23T10:07:03;98380.59;;;14.53;49.07
3544;BME280;1786;52.870;9.578;2024-02-23T10:09:31;98389.59;;;14.52;50.13
3544;BME280;1786;52.870;9.578;2024-02-23T10:11:58;98390.41;;;14.52;49.99
3544;BME280;1786;52.870;9.578;2024-02-23T10:14:24;98392.75;;;14.24;50.18
3544;BME280;1786;52.870;9.578;2024-02-23T10:16:51;98387.28;;;13.78;50.30
3544;BME280;1786;52.870;9.578;2024-02-23T10:19:21;98394.97;;;14.35;50.39
3544;BME280;1786;52.870;9.578;2024-02-23T10:21:48;98401.66;;;14.62;50.09
3544;BME280;1786;52.870;9.578;2024-02-23T10:24:17;98396.69;;;13.97;50.05
3544;BME280;1786;52.870;9.578;2024-02-23T10:26:44;98398.94;;;14.39;49.93
3544;BME280;1786;52.870;9.578;2024-02-23T10:29:12;98407.72;;;13.77;49.63
3544;BME280;1786;52.870;9.578;2024-02-23T10:31:43;98400.03;;;13.43;51.29
3544;BME280;1786;52.870;9.578;2024-02-23T10:34:14;98394.47;;;14.09;50.29
3544;BME280;1786;52.870;9.578;2024-02-23T10:36:43;98397.75;;;13.79;49.67
3544;BME280;1786;52.870;9.578;2024-02-23T10:39:15;98394.41;;;13.85;49.81
3544;BME280;1786;52.870;9.578;2024-02-23T10:41:46;98404.00;;;13.95;50.42
3544;BME280;1786;52.870;9.578;2024-02-23T10:44:15;98392.13;;;13.74;50.13
3544;BME280;1786;52.870;9.578;2024-02-23T10:46:44;98402.44;;;14.40;49.08
3544;BME280;1786;52.870;9.578;2024-02-23T10:49:12;98393.69;;;14.00;49.68
3544;BME280;1786;52.870;9.578;2024-02-23T10:51:41;98403.13;;;13.55;49.75
3544;BME280;1786;52.870;9.578;2024-02-23T10:54:08;98402.59;;;13.68;50.18
3544;BME280;1786;52.870;9.578;2024-02-23T10:56:36;98414.22;;;14.06;49.35
3544;BME280;1786;52.870;9.578;2024-02-23T10:59:03;98405.72;;;13.79;50.56
3544;BME280;1786;52.870;9.578;2024-02-23T11:01:32;98408.47;;;13.94;49.39
3544;BME280;1786;52.870;9.578;2024-02-23T11:04:01;98406.88;;;13.77;49.37
3544;BME280;1786;52.870;9.578;2024-02-23T11:06:28;98410.09;;;13.56;49.93
3544;BME280;1786;52.870;9.578;2024-02-23T11:09:05;98406.84;;;14.24;49.09
3544;BME280;1786;52.870;9.578;2024-02-23T11:11:32;98408.03;;;14.22;49.69
3544;BME280;1786;52.870;9.578;2024-02-23T11:14:03;98402.25;;;13.71;49.20
3544;BME280;1786;52.870;9.578;2024-02-23T11:16:31;98403.28;;;13.61;49.76
3544;BME280;1786;52.870;9.578;2024-02-23T11:19:06;98397.75;;;13.79;49.80
3544;BME280;1786;52.870;9.578;2024-02-23T11:21:35;98405.75;;;13.71;49.47
3544;BME280;1786;52.870;9.578;2024-02-23T11:24:05;98401.47;;;14.33;49.04
3544;BME280;1786;52.870;9.578;2024-02-23T11:26:32;98399.84;;;14.32;50.05
3544;BME280;1786;52.870;9.578;2024-02-23T11:29:10;98407.38;;;14.43;48.63
3544;BME280;1786;52.870;9.578;2024-02-23T11:31:45;98397.81;;;14.65;49.05
3544;BME280;1786;52.870;9.578;2024-02-23T11:34:12;98398.94;;;14.08;48.50
3544;BME280;1786;52.870;9.578;2024-02-23T11:36:39;98395.41;;;14.24;48.13
3544;BME280;1786;52.870;9.578;2024-02-23T11:39:06;98390.81;;;14.64;47.83
3544;BME280;1786;52.870;9.578;2024-02-23T11:41:33;98403.19;;;14.57;47.56
3544;BME280;1786;52.870;9.578;2024-02-23T11:44:00;98388.06;;;14.80;48.26
3544;BME280;1786;52.870;9.578;2024-02-23T11:46:27;98389.63;;;14.43;47.44
3544;BME280;1786;52.870;9.578;2024-02-23T11:48:53;98392.69;;;14.32;48.39
3544;BME280;1786;52.870;9.578;2024-02-23T11:51:22;98389.59;;;14.75;46.97
3544;BME280;1786;52.870;9.578;2024-02-23T11:53:50;98389.53;;;14.83;47.68
3544;BME280;1786;52.870;9.578;2024-02-23T11:56:18;98385.63;;;14.70;47.39
3544;BME280;1786;52.870;9.578;2024-02-23T11:58:46;98380.41;;;14.62;47.52
3544;BME280;1786;52.870;9.578;2024-02-23T12:01:13;98397.81;;;14.65;46.75
3544;BME280;1786;52.870;9.578;2024-02-23T12:03:40;98382.09;;;15.16;47.49
3544;BME280;1786;52.870;9.578;2024-02-23T12:06:07;98367.72;;;15.40;47.39
3544;BME280;1786;52.870;9.578;2024-02-23T12:08:34;98364.84;;;15.27;47.16
3544;BME280;1786;52.870;9.578;2024-02-23T12:11:08;98360.38;;;15.42;46.82
3544;BME280;1786;52.870;9.578;2024-02-23T12:13:36;98366.81;;;15.33;46.97
3544;BME280;1786;52.870;9.578;2024-02-23T12:16:04;98368.91;;;15.38;47.06
3544;BME280;1786;52.870;9.578;2024-02-23T12:18:35;98364.25;;;15.84;46.18
3544;BME280;1786;52.870;9.578;2024-02-23T12:21:05;98375.09;;;15.83;46.37
3544;BME280;1786;52.870;9.578;2024-02-23T12:23:44;98368.44;;;15.34;45.03
3544;BME280;1786;52.870;9.578;2024-02-23T12:26:17;98372.94;;;15.33;46.51
3544;BME280;1786;52.870;9.578;2024-02-23T12:28:45;98370.13;;;15.35;45.64
3544;BME280;1786;52.870;9.578;2024-02-23T12:31:12;98372.22;;;15.54;45.17
3544;BME280;1786;52.870;9.578;2024-02-23T12:33:40;98379.63;;;14.45;47.87
3544;BME280;1786;52.870;9.578;2024-02-23T12:36:08;98365.59;;;15.35;46.32
3544;BME280;1786;52.870;9.578;2024-02-23T12:38:36;98374.50;;;15.28;46.42
3544;BME280;1786;52.870;9.578;2024-02-23T12:41:04;98378.47;;;15.76;46.24
3544;BME280;1786;52.870;9.578;2024-02-23T12:43:31;98380.69;;;15.73;45.47
3544;BME280;1786;52.870;9.578;2024-02-23T12:45:58;98385.53;;;15.99;45.92
3544;BME280;1786;52.870;9.578;2024-02-23T12:48:25;98390.03;;;15.98;45.19
3544;BME280;1786;52.870;9.578;2024-02-23T12:50:52;98391.78;;;16.28;45.08
3544;BME280;1786;52.870;9.578;2024-02-23T12:53:35;98392.59;;;15.47;44.92
3544;BME280;1786;52.870;9.578;2024-02-23T12:56:14;98391.69;;;15.55;45.13
3544;BME280;1786;52.870;9.578;2024-02-23T12:58:44;98406.94;;;16.42;45.25
3544;BME280;1786;52.870;9.578;2024-02-23T13:01:11;98402.78;;;16.18;45.07
3544;BME280;1786;52.870;9.578;2024-02-23T13:03:39;98391.00;;;16.12;45.45
3544;BME280;1786;52.870;9.578;2024-02-23T13:06:07;98393.75;;;15.83;45.22
3544;BME280;1786;52.870;9.578;2024-02-23T13:08:34;98397.66;;;15.72;44.79
3544;BME280;1786;52.870;9.578;2024-02-23T13:11:01;98392.81;;;16.27;44.72
3544;BME280;1786;52.870;9.578;2024-02-23T13:13:28;98398.66;;;16.15;45.38
3544;BME280;1786;52.870;9.578;2024-02-23T13:15:55;98395.53;;;15.82;43.94
3544;BME280;1786;52.870;9.578;2024-02-23T13:18:23;98409.75;;;15.30;44.65
3544;BME280;1786;52.870;9.578;2024-02-23T13:20:50;98410.94;;;14.89;45.77
3544;BME280;1786;52.870;9.578;2024-02-23T13:23:18;98414.22;;;15.14;46.88